createdAt,value
2022-09-12T00:00:21.565Z,89.11
2022-09-12T00:01:21.604Z,89.30
2022-09-12T00:02:21.569Z,89.78
2022-09-12T00:03:21.523Z,90.76
2022-09-12T00:04:21.675Z,90.56
2022-09-12T00:05:21.492Z,90.86
2022-09-12T00:06:23.077Z,90.56
2022-09-12T00:07:21.482Z,89.59
2022-09-12T00:08:21.512Z,89.98
2022-09-12T00:09:21.463Z,90.56
2022-09-12T00:10:21.604Z,90.66
2022-09-12T00:11:21.446Z,91.46
2022-09-12T00:12:21.446Z,91.76
2022-09-12T00:13:21.426Z,91.86
2022-09-12T00:14:21.397Z,92.37
2022-09-12T00:15:21.401Z,92.47
2022-09-12T00:16:21.745Z,92.99
2022-09-12T00:17:21.385Z,93.19
2022-09-12T00:18:21.362Z,93.30
2022-09-12T00:19:21.351Z,94.57
2022-09-12T00:20:21.332Z,94.67
2022-09-12T00:21:21.323Z,94.25
2022-09-12T00:22:21.533Z,93.93
2022-09-12T00:23:21.293Z,93.19
2022-09-12T00:24:21.293Z,92.78
2022-09-12T00:25:21.281Z,93.09
2022-09-12T00:26:21.278Z,93.30
2022-09-12T00:27:21.271Z,93.19
2022-09-12T00:28:21.408Z,93.30
2022-09-12T00:29:21.233Z,93.93
2022-09-12T00:30:21.233Z,93.82
2022-09-12T00:31:21.246Z,94.14
2022-09-12T00:32:21.202Z,94.46
2022-09-12T00:33:21.198Z,94.46
2022-09-12T00:34:21.559Z,94.89
2022-09-12T00:35:21.187Z,94.78
2022-09-12T00:36:21.165Z,94.46
2022-09-12T00:37:21.165Z,94.89
2022-09-12T00:38:21.144Z,95.21
2022-09-12T00:39:21.158Z,94.78
2022-09-12T00:40:21.274Z,95.10
2022-09-12T00:41:21.124Z,95.87
2022-09-12T00:42:21.099Z,93.91
2022-09-12T00:43:21.111Z,95.65
2022-09-12T00:44:21.080Z,95.54
2022-09-12T00:45:21.069Z,95.76
2022-09-12T00:46:21.214Z,95.54
2022-09-12T00:47:21.066Z,95.10
2022-09-12T00:48:21.038Z,95.65
2022-09-12T00:49:21.032Z,94.89
2022-09-12T00:50:21.006Z,94.78
2022-09-12T00:51:21.254Z,94.46
2022-09-12T00:52:20.985Z,93.93
2022-09-12T00:53:20.983Z,93.30
2022-09-12T00:54:21.005Z,93.40
2022-09-12T00:55:20.964Z,93.51
2022-09-12T00:56:20.963Z,93.72
2022-09-12T00:57:21.270Z,93.19
2022-09-12T00:58:20.945Z,92.88
2022-09-12T00:59:20.921Z,92.78
2022-09-12T01:00:20.913Z,92.47
2022-09-12T01:01:20.961Z,91.96
2022-09-12T01:02:20.890Z,92.06
2022-09-12T01:03:21.202Z,91.46
2022-09-12T01:04:20.870Z,91.26
2022-09-12T01:05:20.856Z,90.66
2022-09-12T01:06:20.851Z,90.27
2022-09-12T01:07:20.832Z,89.59
2022-09-12T01:08:20.813Z,89.40
2022-09-12T01:09:21.018Z,89.11
2022-09-12T01:10:20.794Z,89.02
2022-09-12T01:11:20.783Z,88.83
2022-09-12T01:12:20.773Z,89.69
2022-09-12T01:13:20.767Z,90.37
2022-09-12T01:14:20.760Z,90.46
2022-09-12T01:15:20.908Z,90.86
2022-09-12T01:16:20.753Z,90.76
2022-09-12T01:17:20.726Z,91.66
2022-09-12T01:18:20.706Z,92.99
2022-09-12T01:19:20.703Z,93.82
2022-09-12T01:20:20.687Z,95.32
2022-09-12T01:21:20.859Z,93.75
2022-09-12T01:22:20.666Z,94.01
2022-09-12T01:23:20.648Z,94.65
2022-09-12T01:24:20.650Z,96.07
2022-09-12T01:25:20.634Z,96.29
2022-09-12T01:26:20.624Z,97.13
2022-09-12T01:27:20.766Z,97.87
2022-09-12T01:28:20.595Z,98.05
2022-09-12T01:29:20.588Z,98.74
2022-09-12T01:30:20.591Z,99.45
2022-09-12T01:31:20.570Z,99.93
2022-09-12T01:32:20.807Z,100.95
2022-09-12T01:33:20.547Z,101.26
2022-09-12T01:34:20.536Z,102.06
2022-09-12T01:35:20.547Z,102.38
2022-09-12T01:36:20.504Z,103.01
2022-09-12T01:37:20.532Z,102.94
2022-09-12T01:38:20.648Z,102.75
2022-09-12T01:39:20.493Z,103.26
2022-09-12T01:40:20.465Z,102.44
2022-09-12T01:41:20.500Z,102.63
2022-09-12T01:42:20.445Z,102.69
2022-09-12T01:43:20.448Z,101.94
2022-09-12T01:44:20.636Z,102.31
2022-09-12T01:45:20.420Z,101.94
2022-09-12T01:46:20.429Z,100.71
2022-09-12T01:47:20.396Z,100.65
2022-09-12T01:48:20.389Z,100.53
2022-09-12T01:49:20.757Z,99.99
2022-09-12T01:50:20.380Z,100.95
2022-09-12T01:51:20.357Z,100.59
2022-09-12T01:52:20.351Z,100.04
2022-09-12T01:53:20.334Z,98.86
2022-09-12T01:54:20.320Z,99.09
2022-09-12T01:55:20.635Z,99.51
2022-09-12T01:56:20.300Z,99.69
2022-09-12T01:57:20.292Z,100.41
2022-09-12T01:58:20.314Z,101.26
2022-09-12T01:59:20.275Z,102.13
2022-09-12T02:00:20.255Z,103.26
2022-09-12T02:01:20.442Z,103.97
2022-09-12T02:02:20.269Z,103.20
2022-09-12T02:03:20.226Z,104.10
2022-09-12T02:04:20.215Z,104.36
2022-09-12T02:05:20.212Z,104.10
2022-09-12T02:06:20.185Z,103.78
2022-09-12T02:07:20.505Z,103.65
2022-09-12T02:08:20.177Z,103.07
2022-09-12T02:09:20.156Z,102.63
2022-09-12T02:10:20.147Z,102.00
2022-09-12T02:11:20.138Z,101.94
2022-09-12T02:12:20.126Z,101.69
2022-09-12T02:13:20.275Z,101.01
2022-09-12T02:14:20.106Z,100.83
2022-09-12T02:15:20.095Z,99.51
2022-09-12T02:16:20.131Z,99.33
2022-09-12T02:17:20.076Z,98.33
2022-09-12T02:18:20.060Z,97.19
2022-09-12T02:19:20.265Z,96.63
2022-09-12T02:20:37.513Z,95.41
2022-09-12T02:21:21.014Z,95.52
2022-09-12T02:22:20.011Z,95.52
2022-09-12T02:23:19.997Z,94.71
2022-09-12T02:24:19.976Z,94.65
2022-09-12T02:25:20.184Z,94.07
2022-09-12T02:26:19.970Z,93.91
2022-09-12T02:27:19.945Z,95.65
2022-09-12T02:28:19.936Z,95.65
2022-09-12T02:29:19.940Z,94.78
2022-09-12T02:30:19.917Z,93.93
2022-09-12T02:31:20.067Z,93.72
2022-09-12T02:32:19.899Z,92.99
2022-09-12T02:33:19.883Z,92.26
2022-09-12T02:34:19.868Z,91.56
2022-09-12T02:35:19.877Z,91.16
2022-09-12T02:36:20.080Z,90.66
2022-09-12T02:37:19.840Z,90.37
2022-09-12T02:38:19.835Z,89.59
2022-09-12T02:39:19.816Z,89.59
2022-09-12T02:40:19.845Z,89.69
2022-09-12T02:41:19.805Z,89.11
2022-09-12T02:42:20.095Z,89.59
2022-09-12T02:43:19.783Z,91.06
2022-09-12T02:44:19.764Z,91.06
2022-09-12T02:45:19.755Z,91.56
2022-09-12T02:46:19.744Z,91.56
2022-09-12T02:47:19.736Z,92.47
2022-09-12T02:48:19.894Z,93.19
2022-09-12T02:49:19.712Z,93.93
2022-09-12T02:50:19.696Z,94.14
2022-09-12T02:51:23.523Z,93.93
2022-09-12T02:52:19.676Z,93.93
2022-09-12T02:53:19.676Z,92.99
2022-09-12T02:54:22.617Z,92.16
2022-09-12T02:55:19.647Z,91.56
2022-09-12T02:56:19.627Z,90.46
2022-09-12T02:57:22.783Z,89.40
2022-09-12T02:58:19.606Z,88.83
2022-09-12T02:59:19.610Z,88.36
2022-09-12T03:00:19.922Z,88.08
2022-09-12T03:01:19.619Z,87.98
2022-09-12T03:02:19.605Z,87.43
2022-09-12T03:03:19.567Z,87.16
2022-09-12T03:04:19.549Z,87.07
2022-09-12T03:05:19.545Z,86.52
2022-09-12T03:06:19.686Z,85.90
2022-09-12T03:07:19.518Z,85.72
2022-09-12T03:08:19.505Z,85.81
2022-09-12T03:09:19.657Z,85.81
2022-09-12T03:10:19.486Z,85.64
2022-09-12T03:11:19.473Z,85.46
2022-09-12T03:12:19.467Z,85.64
2022-09-12T03:13:19.445Z,85.37
2022-09-12T03:14:19.480Z,85.90
2022-09-12T03:15:19.434Z,85.81
2022-09-12T03:16:19.462Z,85.99
2022-09-12T03:17:19.406Z,85.81
2022-09-12T03:18:19.402Z,85.37
2022-09-12T03:19:19.386Z,85.55
2022-09-12T03:20:19.527Z,85.81
2022-09-12T03:21:19.525Z,86.08
2022-09-12T03:22:19.356Z,86.52
2022-09-12T03:23:19.349Z,85.90
2022-09-12T03:24:19.331Z,86.08
2022-09-12T03:25:19.318Z,86.35
2022-09-12T03:26:19.311Z,85.90
2022-09-12T03:27:19.464Z,86.35
2022-09-12T03:28:19.290Z,85.72
2022-09-12T03:29:19.279Z,86.26
2022-09-12T03:30:19.295Z,85.72
2022-09-12T03:31:19.259Z,85.46
2022-09-12T03:32:19.255Z,85.29
2022-09-12T03:33:19.391Z,85.46
2022-09-12T03:34:19.226Z,85.20
2022-09-12T03:35:22.831Z,84.85
2022-09-12T03:36:19.210Z,84.85
2022-09-12T03:37:19.186Z,84.77
2022-09-12T03:38:19.179Z,84.59
2022-09-12T03:39:19.327Z,84.77
2022-09-12T03:40:19.171Z,84.59
2022-09-12T03:41:19.166Z,84.17
2022-09-12T03:42:19.135Z,84.08
2022-09-12T03:43:19.155Z,83.41
2022-09-12T03:44:19.140Z,83.33
2022-09-12T03:45:19.326Z,82.26
2022-09-12T03:46:19.097Z,81.69
2022-09-12T03:47:19.096Z,80.98
2022-09-12T03:48:19.076Z,80.67
2022-09-12T03:49:19.069Z,80.05
2022-09-12T03:50:19.057Z,79.51
2022-09-12T03:51:19.277Z,79.67
2022-09-12T03:52:19.033Z,79.44
2022-09-12T03:53:19.018Z,78.76
2022-09-12T03:54:19.019Z,78.54
2022-09-12T03:55:19.005Z,78.17
2022-09-12T03:56:18.991Z,77.96
2022-09-12T03:57:19.147Z,77.67
2022-09-12T03:58:18.970Z,77.38
2022-09-12T03:59:18.949Z,77.38
2022-09-12T04:00:19.971Z,77.23
2022-09-12T04:01:18.974Z,77.16
2022-09-12T04:02:18.979Z,77.09
2022-09-12T04:03:19.128Z,76.88
2022-09-12T04:04:18.914Z,76.88
2022-09-12T04:05:18.886Z,76.81
2022-09-12T04:06:18.886Z,76.81
2022-09-12T04:07:18.867Z,76.88
2022-09-12T04:08:18.870Z,76.81
2022-09-12T04:09:19.066Z,77.16
2022-09-12T04:10:18.836Z,77.09
2022-09-12T04:11:18.824Z,76.88
2022-09-12T04:12:18.823Z,77.09
2022-09-12T04:13:18.807Z,77.16
2022-09-12T04:14:18.798Z,77.16
2022-09-12T04:15:18.994Z,77.09
2022-09-12T04:16:18.854Z,77.09
2022-09-12T04:17:18.757Z,77.02
2022-09-12T04:18:18.767Z,76.95
2022-09-12T04:19:18.748Z,77.16
2022-09-12T04:20:18.973Z,77.67
2022-09-12T04:21:18.712Z,78.39
2022-09-12T04:22:18.716Z,79.29
2022-09-12T04:23:18.698Z,80.67
2022-09-12T04:24:18.693Z,82.50
2022-09-12T04:25:18.709Z,83.33
2022-09-12T04:26:18.827Z,84.51
2022-09-12T04:27:18.691Z,85.90
2022-09-12T04:28:18.647Z,86.79
2022-09-12T04:29:18.645Z,88.08
2022-09-12T04:30:18.654Z,88.54
2022-09-12T04:31:18.609Z,89.40
2022-09-12T04:32:18.770Z,89.69
2022-09-12T04:33:18.607Z,90.17
2022-09-12T04:34:18.588Z,90.27
2022-09-12T04:35:18.604Z,90.07
2022-09-12T04:36:18.575Z,90.17
2022-09-12T04:37:18.546Z,90.07
2022-09-12T04:38:18.729Z,90.17
2022-09-12T04:39:18.527Z,89.69
2022-09-12T04:40:18.569Z,89.49
2022-09-12T04:41:18.543Z,89.30
2022-09-12T04:42:18.528Z,89.21
2022-09-12T04:43:18.487Z,89.11
2022-09-12T04:44:18.634Z,88.83
2022-09-12T04:45:18.463Z,88.73
2022-09-12T04:46:18.469Z,88.45
2022-09-12T04:47:18.459Z,88.17
2022-09-12T04:48:18.437Z,87.98
2022-09-12T04:49:18.418Z,87.71
2022-09-12T04:50:18.579Z,87.34
2022-09-12T04:51:18.400Z,87.07
2022-09-12T04:52:18.390Z,86.70
2022-09-12T04:53:18.374Z,86.26
2022-09-12T04:54:18.385Z,86.43
2022-09-12T04:55:18.349Z,86.08
2022-09-12T04:56:18.382Z,85.81
2022-09-12T04:57:18.327Z,85.64
2022-09-12T04:58:18.318Z,84.77
2022-09-12T04:59:18.312Z,84.59
2022-09-12T05:00:18.301Z,83.91
2022-09-12T05:01:18.328Z,83.58
2022-09-12T05:02:18.555Z,83.00
2022-09-12T05:03:18.274Z,82.58
2022-09-12T05:04:18.255Z,82.26
2022-09-12T05:05:18.256Z,81.86
2022-09-12T05:06:18.233Z,81.30
2022-09-12T05:07:18.226Z,80.90
2022-09-12T05:08:18.417Z,80.43
2022-09-12T05:09:18.198Z,79.82
2022-09-12T05:10:18.204Z,79.44
2022-09-12T05:11:21.581Z,79.29
2022-09-12T05:12:19.168Z,78.84
2022-09-12T05:13:18.167Z,78.62
2022-09-12T05:14:18.324Z,78.10
2022-09-12T05:15:18.174Z,77.81
2022-09-12T05:16:18.180Z,77.59
2022-09-12T05:17:18.158Z,77.16
2022-09-12T05:18:18.111Z,77.31
2022-09-12T05:19:18.089Z,77.45
2022-09-12T05:20:18.262Z,77.09
2022-09-12T05:21:18.067Z,76.95
2022-09-12T05:22:18.072Z,76.67
2022-09-12T05:23:18.069Z,76.46
2022-09-12T05:24:18.065Z,76.53
2022-09-12T05:25:18.029Z,76.53
2022-09-12T05:26:18.185Z,76.53
2022-09-12T05:27:18.009Z,76.67
2022-09-12T05:28:18.007Z,76.53
2022-09-12T05:29:17.999Z,76.46
2022-09-12T05:30:18.004Z,76.25
2022-09-12T05:31:17.962Z,76.32
2022-09-12T05:32:18.262Z,75.97
2022-09-12T05:33:20.931Z,75.56
2022-09-12T05:34:18.928Z,75.08
2022-09-12T05:35:17.929Z,74.81
2022-09-12T05:36:17.915Z,74.41
2022-09-12T05:37:17.922Z,74.21
2022-09-12T05:38:18.056Z,74.08
2022-09-12T05:39:17.887Z,73.82
2022-09-12T05:40:17.938Z,73.56
2022-09-12T05:41:20.921Z,73.23
2022-09-12T05:42:18.852Z,72.66
2022-09-12T05:43:17.838Z,72.35
2022-09-12T05:44:17.983Z,72.22
2022-09-12T05:45:17.808Z,72.03
2022-09-12T05:46:17.813Z,71.79
2022-09-12T05:47:17.812Z,71.54
2022-09-12T05:48:17.788Z,71.60
2022-09-12T05:49:17.772Z,71.54
2022-09-12T05:50:17.931Z,71.66
2022-09-12T05:51:17.749Z,71.79
2022-09-12T05:52:17.748Z,71.72
2022-09-12T05:53:17.728Z,71.60
2022-09-12T05:54:17.727Z,71.66
2022-09-12T05:55:17.707Z,71.66
2022-09-12T05:56:17.895Z,71.66
2022-09-12T05:57:17.687Z,71.79
2022-09-12T05:58:17.687Z,72.03
2022-09-12T05:59:17.676Z,71.97
2022-09-12T06:00:17.657Z,71.97
2022-09-12T06:01:17.701Z,71.79
2022-09-12T06:02:17.825Z,71.60
2022-09-12T06:03:17.641Z,71.48
2022-09-12T06:04:17.629Z,71.48
2022-09-12T06:05:17.599Z,71.54
2022-09-12T06:06:17.592Z,71.42
2022-09-12T06:07:17.736Z,71.54
2022-09-12T06:08:17.567Z,71.66
2022-09-12T06:09:17.559Z,71.66
2022-09-12T06:10:17.549Z,71.97
2022-09-12T06:11:17.538Z,72.16
2022-09-12T06:12:17.528Z,72.16
2022-09-12T06:13:17.763Z,72.28
2022-09-12T06:14:17.515Z,72.03
2022-09-12T06:15:17.487Z,71.97
2022-09-12T06:16:17.539Z,72.03
2022-09-12T06:17:17.467Z,72.22
2022-09-12T06:18:17.465Z,72.03
2022-09-12T06:19:17.615Z,72.03
2022-09-12T06:20:17.467Z,72.10
2022-09-12T06:21:17.446Z,71.79
2022-09-12T06:22:17.421Z,71.66
2022-09-12T06:23:17.408Z,71.72
2022-09-12T06:24:17.422Z,71.72
2022-09-12T06:25:17.548Z,71.91
2022-09-12T06:26:17.378Z,72.22
2022-09-12T06:27:17.361Z,72.35
2022-09-12T06:28:17.358Z,72.47
2022-09-12T06:29:17.355Z,72.85
2022-09-12T06:30:17.337Z,72.91
2022-09-12T06:31:17.492Z,73.04
2022-09-12T06:32:17.314Z,72.53
2022-09-12T06:33:17.297Z,73.17
2022-09-12T06:34:17.328Z,73.11
2022-09-12T06:35:17.277Z,73.43
2022-09-12T06:36:17.279Z,73.23
2022-09-12T06:37:17.427Z,73.30
2022-09-12T06:38:17.249Z,73.43
2022-09-12T06:39:17.921Z,73.56
2022-09-12T06:40:17.264Z,73.56
2022-09-12T06:41:17.219Z,74.01
2022-09-12T06:42:17.221Z,74.21
2022-09-12T06:43:17.436Z,74.54
2022-09-12T06:44:17.190Z,74.68
2022-09-12T06:45:17.167Z,74.74
2022-09-12T06:46:17.214Z,75.35
2022-09-12T06:47:24.668Z,75.76
2022-09-12T06:48:17.158Z,76.39
2022-09-12T06:49:17.474Z,76.39
2022-09-12T06:50:17.137Z,76.32
2022-09-12T06:51:17.109Z,76.39
2022-09-12T06:52:17.108Z,76.67
2022-09-12T06:53:17.088Z,76.95
2022-09-12T06:54:17.368Z,76.74
2022-09-12T06:55:20.340Z,76.60
2022-09-12T06:56:17.075Z,76.67
2022-09-12T06:57:17.059Z,77.59
2022-09-12T06:58:17.048Z,77.96
2022-09-12T06:59:17.032Z,78.03
2022-09-12T07:00:17.030Z,78.03
2022-09-12T07:01:17.218Z,78.62
2022-09-12T07:02:24.564Z,78.69
2022-09-12T07:03:16.977Z,78.99
2022-09-12T07:04:16.986Z,79.82
2022-09-12T07:05:16.952Z,79.82
2022-09-12T07:06:16.962Z,80.75
2022-09-12T07:07:16.976Z,80.75
2022-09-12T07:08:16.929Z,81.69
2022-09-12T07:09:16.909Z,82.83
2022-09-12T07:10:21.643Z,83.41
2022-09-12T07:11:17.895Z,83.91
2022-09-12T07:12:16.894Z,85.46
2022-09-12T07:13:16.887Z,87.71
2022-09-12T07:14:16.867Z,90.07
2022-09-12T07:15:16.848Z,91.56
2022-09-12T07:16:19.664Z,92.37
2022-09-12T07:17:16.833Z,93.93
2022-09-12T07:18:16.819Z,94.35
2022-09-12T07:19:16.987Z,95.87
2022-09-12T07:20:16.779Z,95.65
2022-09-12T07:21:16.795Z,95.76
2022-09-12T07:22:16.780Z,95.03
2022-09-12T07:23:16.747Z,96.18
2022-09-12T07:24:16.745Z,96.57
2022-09-12T07:25:16.901Z,97.59
2022-09-12T07:26:16.725Z,98.86
2022-09-12T07:27:16.718Z,100.22
2022-09-12T07:28:16.702Z,102.69
2022-09-12T07:30:17.837Z,109.14
2022-09-12T07:31:16.748Z,110.15
2022-09-12T07:32:16.657Z,111.18
2022-09-12T07:33:16.648Z,112.75
2022-09-12T07:34:16.637Z,114.30
2022-09-12T07:35:16.628Z,117.43
2022-09-12T07:36:16.767Z,118.69
2022-09-12T07:37:16.618Z,120.31
2022-09-12T07:38:16.592Z,120.84
2022-09-12T07:39:16.587Z,122.52
2022-09-12T07:40:16.622Z,123.15
2022-09-12T07:41:16.996Z,121.72
2022-09-12T07:42:16.549Z,121.81
2022-09-12T07:43:16.549Z,122.79
2022-09-12T07:44:16.532Z,123.61
2022-09-12T07:45:16.518Z,124.07
2022-09-12T07:46:16.520Z,124.25
2022-09-12T07:47:16.684Z,124.91
2022-09-12T07:48:16.488Z,124.07
2022-09-12T07:49:16.493Z,124.35
2022-09-12T07:50:16.477Z,126.71
2022-09-12T07:51:16.466Z,127.87
2022-09-12T07:52:16.447Z,128.86
2022-09-12T07:53:16.677Z,129.66
2022-09-12T07:54:16.437Z,131.09
2022-09-12T07:55:16.407Z,132.34
2022-09-12T07:56:16.404Z,132.54
2022-09-12T07:57:16.393Z,132.65
2022-09-12T07:58:16.368Z,132.12
2022-09-12T07:59:29.947Z,130.88
2022-09-12T08:00:17.353Z,130.99
2022-09-12T08:01:16.424Z,133.93
2022-09-12T08:02:17.723Z,136.78
2022-09-12T08:03:16.352Z,138.49
2022-09-12T08:04:16.308Z,140.82
2022-09-12T08:05:16.468Z,140.59
2022-09-12T08:06:16.323Z,139.76
2022-09-12T08:07:16.292Z,140.59
2022-09-12T08:08:16.265Z,139.76
2022-09-12T08:09:16.260Z,138.95
2022-09-12T08:10:16.281Z,138.95
2022-09-12T08:11:16.458Z,139.18
2022-09-12T08:12:16.219Z,140.35
2022-09-12T08:13:16.218Z,140.11
2022-09-12T08:14:16.203Z,142.02
2022-09-12T08:15:16.188Z,142.14
2022-09-12T08:16:16.180Z,142.14
2022-09-12T08:17:16.329Z,142.26
2022-09-12T08:18:16.157Z,141.30
2022-09-12T08:19:16.161Z,142.63
2022-09-12T08:20:16.178Z,143.73
2022-09-12T08:21:16.119Z,145.23
2022-09-12T08:22:16.112Z,144.98
2022-09-12T08:23:16.293Z,143.49
2022-09-12T08:24:16.097Z,144.48
2022-09-12T08:25:16.085Z,144.73
2022-09-12T08:26:16.080Z,144.73
2022-09-12T08:27:16.065Z,144.23
2022-09-12T08:28:16.050Z,141.06
2022-09-12T08:29:16.210Z,142.02
2022-09-12T08:30:16.029Z,144.11
2022-09-12T08:31:16.129Z,144.23
2022-09-12T08:32:16.020Z,144.23
2022-09-12T08:33:16.000Z,145.87
2022-09-12T08:34:15.980Z,145.49
2022-09-12T08:35:16.140Z,147.94
2022-09-12T08:36:16.005Z,144.98
2022-09-12T08:37:15.971Z,148.07
2022-09-12T08:38:15.950Z,149.66
2022-09-12T08:39:15.931Z,151.02
2022-09-12T08:40:15.978Z,150.47
2022-09-12T08:41:16.081Z,151.29
2022-09-12T08:42:15.903Z,154.09
2022-09-12T08:43:15.921Z,153.38
2022-09-12T08:44:15.888Z,150.61
2022-09-12T08:45:15.871Z,153.80
2022-09-12T08:46:15.885Z,156.10
2022-09-12T08:47:16.022Z,156.84
2022-09-12T08:48:15.844Z,159.84
2022-09-12T08:49:15.835Z,159.38
2022-09-12T08:50:15.830Z,163.76
2022-09-12T08:51:15.810Z,167.21
2022-09-12T08:52:15.801Z,169.07
2022-09-12T08:53:16.142Z,169.42
2022-09-12T08:54:15.778Z,170.80
2022-09-12T08:55:15.783Z,166.71
2022-09-12T08:56:15.751Z,167.04
2022-09-12T08:57:15.741Z,169.76
2022-09-12T08:58:15.729Z,170.80
2022-09-12T08:59:15.908Z,171.33
2022-09-12T09:00:15.710Z,173.83
2022-09-12T09:01:15.756Z,175.84
2022-09-12T09:02:15.735Z,180.21
2022-09-12T09:03:15.681Z,179.24
2022-09-12T09:04:15.659Z,176.40
2022-09-12T09:05:15.871Z,174.37
2022-09-12T09:06:15.653Z,178.09
2022-09-12T09:07:15.632Z,183.99
2022-09-12T09:08:15.622Z,185.62
2022-09-12T09:09:15.625Z,186.78
2022-09-12T09:10:15.601Z,188.18
2022-09-12T09:11:15.811Z,185.52
2022-09-12T09:12:15.592Z,179.05
2022-09-12T09:13:15.579Z,178.67
2022-09-12T09:14:15.559Z,178.67
2022-09-12T09:15:15.565Z,178.86
2022-09-12T09:16:15.618Z,179.82
2022-09-12T09:17:15.702Z,185.83
2022-09-12T09:18:15.539Z,190.25
2022-09-12T09:19:15.518Z,192.60
2022-09-12T09:20:15.502Z,194.77
2022-09-12T09:21:15.482Z,196.63
2022-09-12T09:22:15.498Z,198.30
2022-09-12T09:23:15.743Z,200.11
2022-09-12T09:24:15.448Z,196.63
2022-09-12T09:25:16.141Z,201.09
2022-09-12T09:26:15.477Z,201.84
2022-09-12T09:27:36.936Z,202.21
2022-09-12T09:28:16.653Z,207.71
2022-09-12T09:29:15.404Z,214.36
2022-09-12T09:30:15.410Z,217.06
2022-09-12T09:31:15.425Z,213.39
2022-09-12T09:32:15.363Z,219.82
2022-09-12T09:33:15.362Z,223.72
2022-09-12T09:34:15.510Z,221.15
2022-09-12T09:35:15.343Z,220.41
2022-09-12T09:36:15.324Z,223.11
2022-09-12T09:37:15.325Z,223.11
2022-09-12T09:38:15.305Z,220.86
2022-09-12T09:39:15.302Z,221.15
2022-09-12T09:40:15.491Z,214.93
2022-09-12T09:41:15.274Z,223.26
2022-09-12T09:42:15.266Z,229.83
2022-09-12T09:43:15.259Z,232.93
2022-09-12T09:44:15.247Z,239.91
2022-09-12T09:45:15.875Z,242.04
2022-09-12T09:46:15.571Z,245.66
2022-09-12T09:47:15.214Z,249.39
2022-09-12T09:48:15.203Z,251.30
2022-09-12T09:49:15.206Z,251.69
2022-09-12T09:50:15.185Z,251.88
2022-09-12T09:51:15.171Z,246.77
2022-09-12T09:52:15.329Z,244.74
2022-09-12T09:53:15.163Z,247.89
2022-09-12T09:54:15.143Z,248.45
2022-09-12T09:55:15.152Z,248.64
2022-09-12T09:56:15.125Z,246.40
2022-09-12T09:57:15.112Z,245.84
2022-09-12T09:58:15.264Z,250.92
2022-09-12T09:59:15.089Z,253.05
2022-09-12T10:00:15.068Z,252.85
2022-09-12T10:01:15.117Z,245.11
2022-09-12T10:02:15.081Z,241.15
2022-09-12T10:03:15.043Z,238.17
2022-09-12T10:04:15.462Z,235.44
2022-09-12T10:05:15.082Z,232.43
2022-09-12T10:06:15.013Z,233.43
2022-09-12T10:07:15.011Z,233.26
2022-09-12T10:08:14.985Z,233.09
2022-09-12T10:09:14.986Z,226.34
2022-09-12T10:10:15.125Z,230.80
2022-09-12T10:11:14.979Z,236.62
2022-09-12T10:12:14.953Z,237.31
2022-09-12T10:13:14.952Z,241.15
2022-09-12T10:14:14.930Z,240.62
2022-09-12T10:15:14.934Z,245.11
2022-09-12T10:16:15.106Z,246.40
2022-09-12T10:17:14.898Z,237.14
2022-09-12T10:18:14.875Z,234.76
2022-09-12T10:19:14.896Z,230.80
2022-09-12T10:20:21.687Z,239.39
2022-09-12T10:21:16.072Z,244.01
2022-09-12T10:22:14.842Z,250.92
2022-09-12T10:23:14.838Z,254.03
2022-09-12T10:24:14.815Z,258.02
2022-09-12T10:25:14.826Z,257.01
2022-09-12T10:26:14.804Z,258.02
2022-09-12T10:27:15.176Z,256.21
2022-09-12T10:28:14.779Z,254.23
2022-09-12T10:29:14.774Z,262.78
2022-09-12T10:30:14.818Z,261.31
2022-09-12T10:31:14.836Z,260.89
2022-09-12T10:32:14.791Z,261.52
2022-09-12T10:33:14.975Z,267.71
2022-09-12T10:34:14.712Z,277.44
2022-09-12T10:35:14.716Z,284.66
2022-09-12T10:36:14.691Z,282.21
2022-09-12T10:37:14.695Z,283.19
2022-09-12T10:38:14.670Z,286.40
2022-09-12T10:39:14.880Z,288.67
2022-09-12T10:40:14.756Z,285.16
2022-09-12T10:41:14.642Z,285.65
2022-09-12T10:42:14.628Z,283.92
2022-09-12T10:43:14.624Z,279.33
2022-09-12T10:44:14.657Z,263.41
2022-09-12T10:45:14.850Z,255.61
2022-09-12T10:46:14.684Z,259.04
2022-09-12T10:47:14.592Z,267.93
2022-09-12T10:48:14.566Z,274.20
2022-09-12T10:49:14.557Z,279.81
2022-09-12T10:50:22.395Z,279.57
2022-09-12T10:51:15.705Z,277.67
2022-09-12T10:52:14.519Z,272.83
2022-09-12T10:53:14.523Z,276.74
2022-09-12T10:54:14.508Z,281.97
2022-09-12T10:55:14.491Z,290.97
2022-09-12T10:56:14.486Z,295.16
2022-09-12T10:57:14.795Z,302.23
2022-09-12T10:58:14.458Z,309.94
2022-09-12T10:59:18.071Z,316.21
2022-09-12T11:00:15.431Z,314.39
2022-09-12T11:01:14.481Z,301.12
2022-09-12T11:02:14.487Z,291.49
2022-09-12T11:03:14.629Z,296.23
2022-09-12T11:04:14.390Z,292.79
2022-09-12T11:05:14.390Z,300.57
2022-09-12T11:06:14.368Z,309.06
2022-09-12T11:07:14.372Z,315.00
2022-09-12T11:08:14.354Z,321.16
2022-09-12T11:09:14.524Z,327.25
2022-09-12T11:10:14.351Z,330.21
2022-09-12T11:11:14.323Z,330.88
2022-09-12T11:12:14.308Z,332.89
2022-09-12T11:13:14.303Z,332.89
2022-09-12T11:14:14.286Z,332.55
2022-09-12T11:15:14.634Z,327.90
2022-09-12T11:16:14.311Z,327.58
2022-09-12T11:17:14.261Z,331.88
2022-09-12T11:18:14.242Z,331.55
2022-09-12T11:19:14.241Z,332.89
2022-09-12T11:20:14.229Z,322.74
2022-09-12T11:21:14.379Z,319.60
2022-09-12T11:22:14.201Z,323.38
2022-09-12T11:23:14.189Z,326.27
2022-09-12T11:24:14.179Z,328.23
2022-09-12T11:25:14.179Z,326.92
2022-09-12T11:26:14.181Z,325.30
2022-09-12T11:27:14.319Z,326.27
2022-09-12T11:28:14.130Z,320.54
2022-09-12T11:29:14.130Z,317.13
2022-09-12T11:30:14.122Z,316.82
2022-09-12T11:31:14.219Z,317.74
2022-09-12T11:32:14.099Z,314.09
2022-09-12T11:33:14.351Z,312.00
2022-09-12T11:34:14.076Z,307.90
2022-09-12T11:35:17.437Z,302.79
2022-09-12T11:36:14.067Z,307.04
2022-09-12T11:37:17.819Z,312.60
2022-09-12T11:38:14.031Z,319.91
2022-09-12T11:39:14.198Z,321.16
2022-09-12T11:40:14.018Z,319.60
2022-09-12T11:41:14.000Z,321.16
2022-09-12T11:42:14.013Z,324.34
2022-09-12T11:43:13.973Z,329.55
2022-09-12T11:44:13.978Z,330.21
2022-09-12T11:45:14.128Z,336.30
2022-09-12T11:46:13.995Z,337.69
2022-09-12T11:47:13.931Z,332.55
2022-09-12T11:48:13.933Z,330.88
2022-09-12T11:49:13.923Z,336.99
2022-09-12T11:50:13.933Z,344.06
2022-09-12T11:51:14.092Z,346.24
2022-09-12T11:52:13.883Z,345.15
2022-09-12T11:53:13.867Z,345.51
2022-09-12T11:54:13.869Z,344.79
2022-09-12T11:55:13.862Z,345.15
2022-09-12T11:56:13.843Z,346.24
2022-09-12T11:57:14.077Z,344.06
2022-09-12T11:58:13.818Z,346.24
2022-09-12T11:59:13.804Z,346.24
2022-09-12T12:00:13.799Z,348.82
2022-09-12T12:01:13.790Z,346.61
2022-09-12T12:02:13.827Z,346.61
2022-09-12T12:03:14.008Z,347.71
2022-09-12T12:04:13.765Z,344.06
2022-09-12T12:05:13.748Z,341.20
2022-09-12T12:06:13.736Z,340.49
2022-09-12T12:07:13.723Z,342.62
2022-09-12T12:08:13.704Z,345.88
2022-09-12T12:09:13.864Z,346.24
2022-09-12T12:10:13.689Z,349.93
2022-09-12T12:11:13.673Z,350.31
2022-09-12T12:12:13.672Z,352.19
2022-09-12T12:13:14.366Z,355.62
2022-09-12T12:14:13.655Z,355.24
2022-09-12T12:15:13.813Z,357.95
2022-09-12T12:16:13.681Z,355.62
2022-09-12T12:17:13.614Z,357.95
2022-09-12T12:18:13.619Z,361.90
2022-09-12T12:19:13.586Z,366.75
2022-09-12T12:20:13.583Z,366.34
2022-09-12T12:21:13.914Z,368.81
2022-09-12T12:22:13.583Z,367.16
2022-09-12T12:23:13.562Z,363.50
2022-09-12T12:24:13.538Z,349.56
2022-09-12T12:25:14.786Z,319.29
2022-09-12T12:26:13.818Z,319.29
2022-09-12T12:27:13.842Z,324.98
2022-09-12T12:28:13.511Z,334.59
2022-09-12T12:29:13.504Z,343.34
2022-09-12T12:30:13.513Z,339.79
2022-09-12T12:31:13.532Z,317.74
2022-09-12T12:32:13.445Z,302.79
2022-09-12T12:33:13.606Z,312.60
2022-09-12T12:34:13.437Z,319.91
2022-09-12T12:35:13.416Z,322.11
2022-09-12T12:36:13.429Z,326.92
2022-09-12T12:37:13.422Z,329.22
2022-09-12T12:38:13.391Z,336.99
2022-09-12T12:39:13.534Z,336.99
2022-09-12T12:40:13.430Z,319.29
2022-09-12T12:41:13.365Z,300.02
2022-09-12T12:42:18.297Z,312.00